sensor_id;sensor_type;location;lat;lon;timestamp;P1;durP1;ratioP1;P2;durP2;ratioP2
34491;SDS011;20737;49.908;8.126;2022-09-09T00:00:45;2.95;;;1.13;;
34491;SDS011;20737;49.908;8.126;2022-09-09T00:03:17;5.80;;;1.35;;
34491;SDS011;20737;49.908;8.126;2022-09-09T00:05:48;1.42;;;0.88;;
34491;SDS011;20737;49.908;8.126;2022-09-09T00:08:24;2.83;;;1.23;;
34491;SDS011;20737;49.908;8.126;2022-09-09T00:10:59;2.40;;;1.13;;
34491;SDS011;20737;49.908;8.126;2022-09-09T00:13:31;2.38;;;1.00;;
34491;SDS011;20737;49.908;8.126;2022-09-09T00:16:03;1.95;;;1.00;;
34491;SDS011;20737;49.908;8.126;2022-09-09T00:18:40;3.65;;;1.02;;
34491;SDS011;20737;49.908;8.126;2022-09-09T00:21:16;4.72;;;2.20;;
34491;SDS011;20737;49.908;8.126;2022-09-09T00:23:45;2.03;;;1.38;;
34491;SDS011;20737;49.908;8.126;2022-09-09T00:26:17;1.88;;;1.20;;
34491;SDS011;20737;49.908;8.126;2022-09-09T00:28:48;3.53;;;1.15;;
34491;SDS011;20737;49.908;8.126;2022-09-09T00:31:27;1.10;;;1.00;;
34491;SDS011;20737;49.908;8.126;2022-09-09T00:33:55;2.22;;;1.30;;
34491;SDS011;20737;49.908;8.126;2022-09-09T00:36:27;1.98;;;1.00;;
34491;SDS011;20737;49.908;8.126;2022-09-09T00:38:58;4.10;;;1.20;;
34491;SDS011;20737;49.908;8.126;2022-09-09T00:41:29;2.38;;;1.08;;
34491;SDS011;20737;49.908;8.126;2022-09-09T00:44:16;2.65;;;1.23;;
34491;SDS011;20737;49.908;8.126;2022-09-09T00:46:59;1.10;;;1.00;;
34491;SDS011;20737;49.908;8.126;2022-09-09T00:49:39;2.03;;;1.17;;
34491;SDS011;20737;49.908;8.126;2022-09-09T00:52:18;2.92;;;1.15;;
34491;SDS011;20737;49.908;8.126;2022-09-09T00:55:02;1.02;;;1.02;;
34491;SDS011;20737;49.908;8.126;2022-09-09T00:57:34;3.08;;;1.30;;
34491;SDS011;20737;49.908;8.126;2022-09-09T01:00:21;1.35;;;0.98;;
34491;SDS011;20737;49.908;8.126;2022-09-09T01:02:52;1.10;;;1.00;;
34491;SDS011;20737;49.908;8.126;2022-09-09T01:05:27;1.00;;;0.90;;
34491;SDS011;20737;49.908;8.126;2022-09-09T01:08:01;1.20;;;0.90;;
34491;SDS011;20737;49.908;8.126;2022-09-09T01:10:35;3.47;;;1.15;;
34491;SDS011;20737;49.908;8.126;2022-09-09T01:13:08;2.70;;;1.27;;
34491;SDS011;20737;49.908;8.126;2022-09-09T01:15:41;3.00;;;1.00;;
34491;SDS011;20737;49.908;8.126;2022-09-09T01:18:11;4.18;;;1.88;;
34491;SDS011;20737;49.908;8.126;2022-09-09T01:20:44;1.48;;;1.02;;
34491;SDS011;20737;49.908;8.126;2022-09-09T01:26:28;2.47;;;1.10;;
34491;SDS011;20737;49.908;8.126;2022-09-09T01:28:58;1.85;;;1.33;;
34491;SDS011;20737;49.908;8.126;2022-09-09T01:31:26;2.38;;;1.20;;
34491;SDS011;20737;49.908;8.126;2022-09-09T01:33:56;3.13;;;1.05;;
34491;SDS011;20737;49.908;8.126;2022-09-09T01:36:24;2.50;;;0.88;;
34491;SDS011;20737;49.908;8.126;2022-09-09T01:38:55;2.38;;;1.13;;
34491;SDS011;20737;49.908;8.126;2022-09-09T01:41:23;1.77;;;1.08;;
34491;SDS011;20737;49.908;8.126;2022-09-09T01:43:52;1.17;;;1.08;;
34491;SDS011;20737;49.908;8.126;2022-09-09T01:46:20;4.47;;;1.40;;
34491;SDS011;20737;49.908;8.126;2022-09-09T01:48:48;2.55;;;1.13;;
34491;SDS011;20737;49.908;8.126;2022-09-09T01:51:17;2.30;;;1.50;;
34491;SDS011;20737;49.908;8.126;2022-09-09T01:53:44;3.45;;;0.93;;
34491;SDS011;20737;49.908;8.126;2022-09-09T01:56:15;0.93;;;0.88;;
34491;SDS011;20737;49.908;8.126;2022-09-09T01:58:55;4.00;;;0.90;;
34491;SDS011;20737;49.908;8.126;2022-09-09T02:01:36;2.05;;;0.90;;
34491;SDS011;20737;49.908;8.126;2022-09-09T02:04:12;3.45;;;0.95;;
34491;SDS011;20737;49.908;8.126;2022-09-09T02:06:50;2.08;;;0.90;;
34491;SDS011;20737;49.908;8.126;2022-09-09T02:09:22;4.05;;;1.45;;
34491;SDS011;20737;49.908;8.126;2022-09-09T02:11:51;1.85;;;0.80;;
34491;SDS011;20737;49.908;8.126;2022-09-09T02:14:27;3.80;;;1.10;;
34491;SDS011;20737;49.908;8.126;2022-09-09T02:17:03;3.95;;;1.08;;
34491;SDS011;20737;49.908;8.126;2022-09-09T02:19:34;1.75;;;1.15;;
34491;SDS011;20737;49.908;8.126;2022-09-09T02:22:05;1.17;;;1.10;;
34491;SDS011;20737;49.908;8.126;2022-09-09T02:24:33;1.95;;;1.23;;
34491;SDS011;20737;49.908;8.126;2022-09-09T02:27:02;1.63;;;1.52;;
34491;SDS011;20737;49.908;8.126;2022-09-09T02:29:35;4.63;;;1.20;;
34491;SDS011;20737;49.908;8.126;2022-09-09T02:32:06;1.48;;;1.30;;
34491;SDS011;20737;49.908;8.126;2022-09-09T02:34:39;1.38;;;1.00;;
34491;SDS011;20737;49.908;8.126;2022-09-09T02:37:09;1.00;;;0.90;;
34491;SDS011;20737;49.908;8.126;2022-09-09T02:39:38;3.00;;;1.05;;
34491;SDS011;20737;49.908;8.126;2022-09-09T02:42:05;1.58;;;0.80;;
34491;SDS011;20737;49.908;8.126;2022-09-09T02:44:32;1.83;;;1.00;;
34491;SDS011;20737;49.908;8.126;2022-09-09T02:49:56;2.00;;;1.00;;
34491;SDS011;20737;49.908;8.126;2022-09-09T02:52:32;0.82;;;0.82;;
34491;SDS011;20737;49.908;8.126;2022-09-09T02:55:06;1.90;;;1.13;;
34491;SDS011;20737;49.908;8.126;2022-09-09T02:57:42;1.80;;;1.00;;
34491;SDS011;20737;49.908;8.126;2022-09-09T03:00:14;1.40;;;0.93;;
34491;SDS011;20737;49.908;8.126;2022-09-09T03:02:40;2.65;;;1.45;;
34491;SDS011;20737;49.908;8.126;2022-09-09T03:05:08;1.95;;;1.20;;
34491;SDS011;20737;49.908;8.126;2022-09-09T03:07:34;2.47;;;1.10;;
34491;SDS011;20737;49.908;8.126;2022-09-09T03:10:01;1.88;;;1.20;;
34491;SDS011;20737;49.908;8.126;2022-09-09T03:12:29;1.85;;;1.10;;
34491;SDS011;20737;49.908;8.126;2022-09-09T03:14:56;1.80;;;1.05;;
34491;SDS011;20737;49.908;8.126;2022-09-09T03:17:24;1.40;;;1.30;;
34491;SDS011;20737;49.908;8.126;2022-09-09T03:19:53;2.30;;;1.30;;
34491;SDS011;20737;49.908;8.126;2022-09-09T03:22:20;2.50;;;1.20;;
34491;SDS011;20737;49.908;8.126;2022-09-09T03:24:46;1.60;;;1.13;;
34491;SDS011;20737;49.908;8.126;2022-09-09T03:27:13;3.05;;;1.50;;
34491;SDS011;20737;49.908;8.126;2022-09-09T03:29:40;2.85;;;1.52;;
34491;SDS011;20737;49.908;8.126;2022-09-09T03:32:07;2.85;;;1.48;;
34491;SDS011;20737;49.908;8.126;2022-09-09T03:34:36;3.70;;;1.35;;
34491;SDS011;20737;49.908;8.126;2022-09-09T03:37:05;2.92;;;1.50;;
34491;SDS011;20737;49.908;8.126;2022-09-09T03:39:32;1.55;;;1.40;;
34491;SDS011;20737;49.908;8.126;2022-09-09T03:41:59;3.75;;;1.65;;
34491;SDS011;20737;49.908;8.126;2022-09-09T03:44:31;2.33;;;1.50;;
34491;SDS011;20737;49.908;8.126;2022-09-09T03:46:58;2.55;;;1.50;;
34491;SDS011;20737;49.908;8.126;2022-09-09T03:49:26;3.13;;;1.58;;
34491;SDS011;20737;49.908;8.126;2022-09-09T03:51:55;2.13;;;1.40;;
34491;SDS011;20737;49.908;8.126;2022-09-09T03:54:23;2.13;;;1.42;;
34491;SDS011;20737;49.908;8.126;2022-09-09T03:56:50;1.85;;;1.58;;
34491;SDS011;20737;49.908;8.126;2022-09-09T03:59:17;3.08;;;1.25;;
34491;SDS011;20737;49.908;8.126;2022-09-09T04:01:44;2.03;;;1.50;;
34491;SDS011;20737;49.908;8.126;2022-09-09T04:04:12;1.58;;;1.48;;
34491;SDS011;20737;49.908;8.126;2022-09-09T04:06:39;1.63;;;1.23;;
34491;SDS011;20737;49.908;8.126;2022-09-09T04:09:08;5.50;;;1.50;;
34491;SDS011;20737;49.908;8.126;2022-09-09T04:11:35;3.72;;;1.35;;
34491;SDS011;20737;49.908;8.126;2022-09-09T04:14:02;3.47;;;1.38;;
34491;SDS011;20737;49.908;8.126;2022-09-09T04:16:30;5.53;;;1.60;;
34491;SDS011;20737;49.908;8.126;2022-09-09T04:18:58;4.13;;;1.30;;
34491;SDS011;20737;49.908;8.126;2022-09-09T04:21:26;2.53;;;1.50;;
34491;SDS011;20737;49.908;8.126;2022-09-09T04:23:53;4.13;;;1.63;;
34491;SDS011;20737;49.908;8.126;2022-09-09T04:26:21;3.28;;;1.33;;
34491;SDS011;20737;49.908;8.126;2022-09-09T04:28:50;5.13;;;1.30;;
34491;SDS011;20737;49.908;8.126;2022-09-09T04:31:17;2.83;;;1.38;;
34491;SDS011;20737;49.908;8.126;2022-09-09T04:33:46;3.65;;;1.65;;
34491;SDS011;20737;49.908;8.126;2022-09-09T04:36:13;3.05;;;1.30;;
34491;SDS011;20737;49.908;8.126;2022-09-09T04:38:40;3.33;;;1.70;;
34491;SDS011;20737;49.908;8.126;2022-09-09T04:41:07;3.40;;;2.03;;
34491;SDS011;20737;49.908;8.126;2022-09-09T04:43:37;3.88;;;1.38;;
34491;SDS011;20737;49.908;8.126;2022-09-09T04:46:04;2.25;;;1.40;;
34491;SDS011;20737;49.908;8.126;2022-09-09T04:48:31;2.13;;;1.40;;
34491;SDS011;20737;49.908;8.126;2022-09-09T04:50:59;5.18;;;1.65;;
34491;SDS011;20737;49.908;8.126;2022-09-09T04:53:27;2.88;;;1.30;;
34491;SDS011;20737;49.908;8.126;2022-09-09T04:56:00;2.22;;;1.63;;
34491;SDS011;20737;49.908;8.126;2022-09-09T04:58:37;4.00;;;1.27;;
34491;SDS011;20737;49.908;8.126;2022-09-09T05:01:05;3.40;;;1.33;;
34491;SDS011;20737;49.908;8.126;2022-09-09T05:03:32;3.67;;;1.38;;
34491;SDS011;20737;49.908;8.126;2022-09-09T05:06:03;3.58;;;1.40;;
34491;SDS011;20737;49.908;8.126;2022-09-09T05:08:31;6.32;;;1.60;;
34491;SDS011;20737;49.908;8.126;2022-09-09T05:10:59;1.58;;;1.30;;
34491;SDS011;20737;49.908;8.126;2022-09-09T05:13:27;1.70;;;1.40;;
34491;SDS011;20737;49.908;8.126;2022-09-09T05:15:58;2.72;;;1.25;;
34491;SDS011;20737;49.908;8.126;2022-09-09T05:18:25;1.83;;;1.27;;
34491;SDS011;20737;49.908;8.126;2022-09-09T05:20:51;1.80;;;1.25;;
34491;SDS011;20737;49.908;8.126;2022-09-09T05:23:24;3.83;;;1.20;;
34491;SDS011;20737;49.908;8.126;2022-09-09T05:25:57;3.05;;;1.23;;
34491;SDS011;20737;49.908;8.126;2022-09-09T05:28:24;2.75;;;1.40;;
34491;SDS011;20737;49.908;8.126;2022-09-09T05:30:56;3.08;;;1.10;;
34491;SDS011;20737;49.908;8.126;2022-09-09T05:33:25;4.18;;;1.20;;
34491;SDS011;20737;49.908;8.126;2022-09-09T05:35:59;4.00;;;1.42;;
34491;SDS011;20737;49.908;8.126;2022-09-09T05:38:28;2.80;;;1.35;;
34491;SDS011;20737;49.908;8.126;2022-09-09T05:40:55;2.53;;;1.35;;
34491;SDS011;20737;49.908;8.126;2022-09-09T05:43:22;1.83;;;1.42;;
34491;SDS011;20737;49.908;8.126;2022-09-09T05:45:59;2.80;;;1.48;;
34491;SDS011;20737;49.908;8.126;2022-09-09T05:48:29;1.73;;;1.33;;
34491;SDS011;20737;49.908;8.126;2022-09-09T05:50:57;1.70;;;1.40;;
34491;SDS011;20737;49.908;8.126;2022-09-09T05:53:24;2.08;;;1.30;;
34491;SDS011;20737;49.908;8.126;2022-09-09T05:55:57;3.22;;;1.40;;
34491;SDS011;20737;49.908;8.126;2022-09-09T05:58:25;2.72;;;1.10;;
34491;SDS011;20737;49.908;8.126;2022-09-09T06:00:52;2.17;;;1.30;;
34491;SDS011;20737;49.908;8.126;2022-09-09T06:03:27;1.20;;;1.00;;
34491;SDS011;20737;49.908;8.126;2022-09-09T06:05:56;2.10;;;0.95;;
34491;SDS011;20737;49.908;8.126;2022-09-09T06:08:24;3.67;;;1.35;;
34491;SDS011;20737;49.908;8.126;2022-09-09T06:10:51;2.72;;;1.00;;
34491;SDS011;20737;49.908;8.126;2022-09-09T06:13:18;3.65;;;0.90;;
34491;SDS011;20737;49.908;8.126;2022-09-09T06:15:49;2.42;;;1.00;;
34491;SDS011;20737;49.908;8.126;2022-09-09T06:18:18;1.20;;;1.02;;
34491;SDS011;20737;49.908;8.126;2022-09-09T06:20:56;5.28;;;1.30;;
34491;SDS011;20737;49.908;8.126;2022-09-09T06:23:31;3.05;;;1.00;;
34491;SDS011;20737;49.908;8.126;2022-09-09T06:26:04;4.05;;;1.10;;
34491;SDS011;20737;49.908;8.126;2022-09-09T06:28:33;2.70;;;1.60;;
34491;SDS011;20737;49.908;8.126;2022-09-09T06:31:00;4.53;;;1.20;;
34491;SDS011;20737;49.908;8.126;2022-09-09T06:33:30;5.25;;;1.20;;
34491;SDS011;20737;49.908;8.126;2022-09-09T06:36:01;0.93;;;0.85;;
34491;SDS011;20737;49.908;8.126;2022-09-09T06:38:30;5.47;;;1.05;;
34491;SDS011;20737;49.908;8.126;2022-09-09T06:40:57;3.95;;;1.10;;
34491;SDS011;20737;49.908;8.126;2022-09-09T06:43:25;5.93;;;1.30;;
34491;SDS011;20737;49.908;8.126;2022-09-09T06:45:52;3.17;;;1.25;;
34491;SDS011;20737;49.908;8.126;2022-09-09T06:48:20;3.33;;;1.23;;
34491;SDS011;20737;49.908;8.126;2022-09-09T06:50:47;3.80;;;1.25;;
34491;SDS011;20737;49.908;8.126;2022-09-09T06:53:16;3.33;;;1.30;;
34491;SDS011;20737;49.908;8.126;2022-09-09T06:55:45;8.27;;;1.70;;
34491;SDS011;20737;49.908;8.126;2022-09-09T06:58:12;7.03;;;1.50;;
34491;SDS011;20737;49.908;8.126;2022-09-09T07:00:38;3.47;;;2.00;;
34491;SDS011;20737;49.908;8.126;2022-09-09T07:03:05;3.17;;;1.50;;
34491;SDS011;20737;49.908;8.126;2022-09-09T07:05:35;4.78;;;1.30;;
34491;SDS011;20737;49.908;8.126;2022-09-09T07:08:02;5.47;;;1.58;;
34491;SDS011;20737;49.908;8.126;2022-09-09T07:10:31;4.03;;;1.23;;
34491;SDS011;20737;49.908;8.126;2022-09-09T07:12:59;4.40;;;1.27;;
34491;SDS011;20737;49.908;8.126;2022-09-09T07:15:27;5.05;;;1.40;;
34491;SDS011;20737;49.908;8.126;2022-09-09T07:17:55;3.10;;;1.05;;
34491;SDS011;20737;49.908;8.126;2022-09-09T07:20:21;2.60;;;1.50;;
34491;SDS011;20737;49.908;8.126;2022-09-09T07:22:48;2.90;;;1.30;;
34491;SDS011;20737;49.908;8.126;2022-09-09T07:25:15;3.05;;;1.35;;
34491;SDS011;20737;49.908;8.126;2022-09-09T07:27:44;3.72;;;1.50;;
34491;SDS011;20737;49.908;8.126;2022-09-09T07:30:11;4.13;;;1.63;;
34491;SDS011;20737;49.908;8.126;2022-09-09T07:32:38;3.85;;;1.60;;
34491;SDS011;20737;49.908;8.126;2022-09-09T07:35:05;3.42;;;1.35;;
34491;SDS011;20737;49.908;8.126;2022-09-09T07:37:35;3.67;;;1.35;;
34491;SDS011;20737;49.908;8.126;2022-09-09T07:40:02;2.03;;;1.20;;
34491;SDS011;20737;49.908;8.126;2022-09-09T07:42:30;6.63;;;1.30;;
34491;SDS011;20737;49.908;8.126;2022-09-09T07:44:58;4.30;;;1.45;;
34491;SDS011;20737;49.908;8.126;2022-09-09T07:47:25;6.65;;;1.70;;
34491;SDS011;20737;49.908;8.126;2022-09-09T07:49:52;4.15;;;1.63;;
34491;SDS011;20737;49.908;8.126;2022-09-09T07:52:19;3.30;;;1.42;;
34491;SDS011;20737;49.908;8.126;2022-09-09T07:54:46;4.85;;;1.70;;
34491;SDS011;20737;49.908;8.126;2022-09-09T07:57:13;3.40;;;1.80;;
34491;SDS011;20737;49.908;8.126;2022-09-09T07:59:41;3.85;;;1.42;;
34491;SDS011;20737;49.908;8.126;2022-09-09T08:02:09;2.97;;;1.25;;
34491;SDS011;20737;49.908;8.126;2022-09-09T08:04:36;4.28;;;1.42;;
34491;SDS011;20737;49.908;8.126;2022-09-09T08:07:03;2.67;;;1.40;;
34491;SDS011;20737;49.908;8.126;2022-09-09T08:09:30;5.38;;;1.75;;
34491;SDS011;20737;49.908;8.126;2022-09-09T08:11:58;5.70;;;1.50;;
34491;SDS011;20737;49.908;8.126;2022-09-09T08:14:26;3.63;;;1.50;;
34491;SDS011;20737;49.908;8.126;2022-09-09T08:16:53;4.47;;;1.60;;
34491;SDS011;20737;49.908;8.126;2022-09-09T08:19:21;4.47;;;1.30;;
34491;SDS011;20737;49.908;8.126;2022-09-09T08:21:48;4.63;;;1.27;;
34491;SDS011;20737;49.908;8.126;2022-09-09T08:24:17;4.53;;;1.60;;
34491;SDS011;20737;49.908;8.126;2022-09-09T08:26:45;3.85;;;1.45;;
34491;SDS011;20737;49.908;8.126;2022-09-09T08:29:14;2.75;;;1.30;;
34491;SDS011;20737;49.908;8.126;2022-09-09T08:31:42;3.92;;;1.40;;
34491;SDS011;20737;49.908;8.126;2022-09-09T08:34:09;2.75;;;1.35;;
34491;SDS011;20737;49.908;8.126;2022-09-09T08:36:39;6.20;;;1.58;;
34491;SDS011;20737;49.908;8.126;2022-09-09T08:39:08;4.15;;;1.50;;
34491;SDS011;20737;49.908;8.126;2022-09-09T08:44:45;4.30;;;1.33;;
34491;SDS011;20737;49.908;8.126;2022-09-09T08:47:26;1.88;;;1.00;;
34491;SDS011;20737;49.908;8.126;2022-09-09T08:50:06;3.30;;;1.10;;
34491;SDS011;20737;49.908;8.126;2022-09-09T08:52:52;3.95;;;1.13;;
34491;SDS011;20737;49.908;8.126;2022-09-09T08:55:24;3.80;;;1.08;;
34491;SDS011;20737;49.908;8.126;2022-09-09T08:57:56;5.10;;;1.63;;
34491;SDS011;20737;49.908;8.126;2022-09-09T09:00:27;5.43;;;1.65;;
34491;SDS011;20737;49.908;8.126;2022-09-09T09:02:59;2.92;;;1.02;;
34491;SDS011;20737;49.908;8.126;2022-09-09T09:05:35;3.85;;;1.17;;
34491;SDS011;20737;49.908;8.126;2022-09-09T09:08:12;3.00;;;1.20;;
34491;SDS011;20737;49.908;8.126;2022-09-09T09:10:49;3.85;;;1.27;;
34491;SDS011;20737;49.908;8.126;2022-09-09T09:13:18;2.13;;;1.17;;
34491;SDS011;20737;49.908;8.126;2022-09-09T09:15:50;5.53;;;0.98;;
34491;SDS011;20737;49.908;8.126;2022-09-09T09:18:21;2.95;;;0.80;;
34491;SDS011;20737;49.908;8.126;2022-09-09T09:20:50;4.00;;;1.20;;
34491;SDS011;20737;49.908;8.126;2022-09-09T09:23:24;4.90;;;1.30;;
34491;SDS011;20737;49.908;8.126;2022-09-09T09:25:52;3.22;;;1.10;;
34491;SDS011;20737;49.908;8.126;2022-09-09T09:28:23;4.40;;;1.10;;
34491;SDS011;20737;49.908;8.126;2022-09-09T09:30:52;2.38;;;0.77;;
34491;SDS011;20737;49.908;8.126;2022-09-09T09:33:23;3.88;;;1.13;;
34491;SDS011;20737;49.908;8.126;2022-09-09T09:35:53;3.10;;;1.00;;
34491;SDS011;20737;49.908;8.126;2022-09-09T09:38:21;3.95;;;1.15;;
34491;SDS011;20737;49.908;8.126;2022-09-09T09:40:50;2.47;;;0.98;;
34491;SDS011;20737;49.908;8.126;2022-09-09T09:43:20;4.75;;;1.10;;
34491;SDS011;20737;49.908;8.126;2022-09-09T09:45:50;3.15;;;0.82;;
34491;SDS011;20737;49.908;8.126;2022-09-09T09:48:17;3.03;;;1.02;;
34491;SDS011;20737;49.908;8.126;2022-09-09T09:50:47;3.58;;;1.00;;
34491;SDS011;20737;49.908;8.126;2022-09-09T09:53:19;2.95;;;1.30;;
34491;SDS011;20737;49.908;8.126;2022-09-09T09:55:52;6.03;;;1.10;;
34491;SDS011;20737;49.908;8.126;2022-09-09T09:58:21;2.50;;;1.05;;
34491;SDS011;20737;49.908;8.126;2022-09-09T10:00:48;3.53;;;1.10;;
34491;SDS011;20737;49.908;8.126;2022-09-09T10:03:23;5.13;;;1.00;;
34491;SDS011;20737;49.908;8.126;2022-09-09T10:05:52;2.22;;;0.52;;
34491;SDS011;20737;49.908;8.126;2022-09-09T10:08:19;3.08;;;1.00;;
34491;SDS011;20737;49.908;8.126;2022-09-09T10:10:49;3.13;;;0.85;;
34491;SDS011;20737;49.908;8.126;2022-09-09T10:13:29;4.00;;;1.00;;
34491;SDS011;20737;49.908;8.126;2022-09-09T10:16:08;2.03;;;0.60;;
34491;SDS011;20737;49.908;8.126;2022-09-09T10:18:50;2.78;;;0.93;;
34491;SDS011;20737;49.908;8.126;2022-09-09T10:21:27;6.50;;;1.10;;
34491;SDS011;20737;49.908;8.126;2022-09-09T10:24:09;1.90;;;0.80;;
34491;SDS011;20737;49.908;8.126;2022-09-09T10:26:52;1.98;;;0.88;;
34491;SDS011;20737;49.908;8.126;2022-09-09T10:29:40;1.75;;;0.88;;
34491;SDS011;20737;49.908;8.126;2022-09-09T10:32:28;3.65;;;1.08;;
34491;SDS011;20737;49.908;8.126;2022-09-09T10:35:02;1.77;;;1.02;;
34491;SDS011;20737;49.908;8.126;2022-09-09T10:37:39;2.97;;;1.15;;
34491;SDS011;20737;49.908;8.126;2022-09-09T10:40:17;1.33;;;0.88;;
34491;SDS011;20737;49.908;8.126;2022-09-09T10:42:58;2.95;;;1.02;;
34491;SDS011;20737;49.908;8.126;2022-09-09T10:45:46;3.10;;;0.90;;
34491;SDS011;20737;49.908;8.126;2022-09-09T10:48:26;4.32;;;0.90;;
34491;SDS011;20737;49.908;8.126;2022-09-09T10:51:09;2.38;;;0.90;;
34491;SDS011;20737;49.908;8.126;2022-09-09T10:53:50;2.67;;;1.08;;
34491;SDS011;20737;49.908;8.126;2022-09-09T10:56:24;4.28;;;1.25;;
34491;SDS011;20737;49.908;8.126;2022-09-09T10:58:55;4.32;;;1.38;;
34491;SDS011;20737;49.908;8.126;2022-09-09T11:01:29;2.88;;;1.10;;
34491;SDS011;20737;49.908;8.126;2022-09-09T11:04:03;3.95;;;1.10;;
34491;SDS011;20737;49.908;8.126;2022-09-09T11:06:41;3.42;;;1.25;;
34491;SDS011;20737;49.908;8.126;2022-09-09T11:09:13;3.05;;;1.02;;
34491;SDS011;20737;49.908;8.126;2022-09-09T11:11:45;6.88;;;1.38;;
34491;SDS011;20737;49.908;8.126;2022-09-09T11:14:19;3.03;;;1.20;;
34491;SDS011;20737;49.908;8.126;2022-09-09T11:16:52;3.08;;;1.30;;
34491;SDS011;20737;49.908;8.126;2022-09-09T11:19:24;4.45;;;1.00;;
34491;SDS011;20737;49.908;8.126;2022-09-09T11:21:56;4.88;;;1.40;;
34491;SDS011;20737;49.908;8.126;2022-09-09T11:24:31;3.38;;;1.08;;
34491;SDS011;20737;49.908;8.126;2022-09-09T11:27:05;3.85;;;1.20;;
34491;SDS011;20737;49.908;8.126;2022-09-09T11:32:56;4.47;;;1.00;;
34491;SDS011;20737;49.908;8.126;2022-09-09T11:35:33;3.15;;;0.90;;
34491;SDS011;20737;49.908;8.126;2022-09-09T11:38:13;5.03;;;1.13;;
34491;SDS011;20737;49.908;8.126;2022-09-09T11:40:44;4.82;;;0.85;;
34491;SDS011;20737;49.908;8.126;2022-09-09T11:43:12;3.80;;;0.90;;
34491;SDS011;20737;49.908;8.126;2022-09-09T11:45:49;2.97;;;1.10;;
34491;SDS011;20737;49.908;8.126;2022-09-09T11:48:27;4.40;;;0.70;;
34491;SDS011;20737;49.908;8.126;2022-09-09T11:50:57;3.00;;;0.75;;
34491;SDS011;20737;49.908;8.126;2022-09-09T11:53:26;4.03;;;0.90;;
34491;SDS011;20737;49.908;8.126;2022-09-09T11:56:00;4.25;;;0.90;;
34491;SDS011;20737;49.908;8.126;2022-09-09T11:58:33;4.68;;;0.98;;
34491;SDS011;20737;49.908;8.126;2022-09-09T12:03:59;3.45;;;0.55;;
34491;SDS011;20737;49.908;8.126;2022-09-09T12:06:42;1.90;;;0.77;;
34491;SDS011;20737;49.908;8.126;2022-09-09T12:09:22;1.67;;;0.60;;
34491;SDS011;20737;49.908;8.126;2022-09-09T12:11:51;5.15;;;0.90;;
34491;SDS011;20737;49.908;8.126;2022-09-09T12:14:23;3.42;;;1.00;;
34491;SDS011;20737;49.908;8.126;2022-09-09T12:17:09;5.30;;;1.45;;
34491;SDS011;20737;49.908;8.126;2022-09-09T12:19:45;5.20;;;1.30;;
34491;SDS011;20737;49.908;8.126;2022-09-09T12:22:15;5.35;;;1.10;;
34491;SDS011;20737;49.908;8.126;2022-09-09T12:24:52;2.67;;;1.00;;
34491;SDS011;20737;49.908;8.126;2022-09-09T12:27:27;3.65;;;0.70;;
34491;SDS011;20737;49.908;8.126;2022-09-09T12:30:00;3.40;;;0.68;;
34491;SDS011;20737;49.908;8.126;2022-09-09T12:32:30;1.42;;;0.90;;
34491;SDS011;20737;49.908;8.126;2022-09-09T12:34:58;2.67;;;0.63;;
34491;SDS011;20737;49.908;8.126;2022-09-09T12:37:29;1.95;;;0.60;;
34491;SDS011;20737;49.908;8.126;2022-09-09T12:40:00;4.45;;;0.68;;
34491;SDS011;20737;49.908;8.126;2022-09-09T12:42:29;3.00;;;0.70;;
34491;SDS011;20737;49.908;8.126;2022-09-09T12:44:58;0.55;;;0.43;;
34491;SDS011;20737;49.908;8.126;2022-09-09T12:47:32;1.58;;;0.45;;
34491;SDS011;20737;49.908;8.126;2022-09-09T12:50:11;2.80;;;0.80;;
34491;SDS011;20737;49.908;8.126;2022-09-09T12:52:42;0.63;;;0.40;;
34491;SDS011;20737;49.908;8.126;2022-09-09T12:55:14;1.58;;;0.82;;
34491;SDS011;20737;49.908;8.126;2022-09-09T12:57:43;0.88;;;0.30;;
34491;SDS011;20737;49.908;8.126;2022-09-09T13:00:12;0.98;;;0.40;;
34491;SDS011;20737;49.908;8.126;2022-09-09T13:02:45;1.65;;;0.38;;
34491;SDS011;20737;49.908;8.126;2022-09-09T13:05:17;5.65;;;0.63;;
34491;SDS011;20737;49.908;8.126;2022-09-09T13:07:46;0.38;;;0.28;;
34491;SDS011;20737;49.908;8.126;2022-09-09T13:10:13;0.73;;;0.47;;
34491;SDS011;20737;49.908;8.126;2022-09-09T13:12:43;1.15;;;0.50;;
34491;SDS011;20737;49.908;8.126;2022-09-09T13:15:14;1.42;;;0.35;;
34491;SDS011;20737;49.908;8.126;2022-09-09T13:17:49;0.17;;;0.17;;
34491;SDS011;20737;49.908;8.126;2022-09-09T13:20:22;0.30;;;0.30;;
34491;SDS011;20737;49.908;8.126;2022-09-09T13:22:51;0.50;;;0.50;;
34491;SDS011;20737;49.908;8.126;2022-09-09T13:25:23;0.85;;;0.45;;
34491;SDS011;20737;49.908;8.126;2022-09-09T13:27:55;1.95;;;0.50;;
34491;SDS011;20737;49.908;8.126;2022-09-09T13:30:24;0.82;;;0.35;;
34491;SDS011;20737;49.908;8.126;2022-09-09T13:33:20;1.58;;;0.40;;
34491;SDS011;20737;49.908;8.126;2022-09-09T13:35:50;2.85;;;0.60;;
34491;SDS011;20737;49.908;8.126;2022-09-09T13:38:19;2.25;;;0.57;;
34491;SDS011;20737;49.908;8.126;2022-09-09T13:40:57;2.72;;;0.65;;
34491;SDS011;20737;49.908;8.126;2022-09-09T13:43:27;4.43;;;0.60;;
34491;SDS011;20737;49.908;8.126;2022-09-09T13:45:55;0.65;;;0.50;;
34491;SDS011;20737;49.908;8.126;2022-09-09T13:48:24;2.28;;;0.60;;
34491;SDS011;20737;49.908;8.126;2022-09-09T13:50:56;2.95;;;0.82;;
34491;SDS011;20737;49.908;8.126;2022-09-09T13:53:25;0.40;;;0.40;;
34491;SDS011;20737;49.908;8.126;2022-09-09T13:55:52;3.10;;;0.85;;
34491;SDS011;20737;49.908;8.126;2022-09-09T13:58:19;1.70;;;0.63;;
34491;SDS011;20737;49.908;8.126;2022-09-09T14:00:47;2.72;;;0.60;;
34491;SDS011;20737;49.908;8.126;2022-09-09T14:03:15;3.28;;;0.60;;
34491;SDS011;20737;49.908;8.126;2022-09-09T14:05:43;4.30;;;0.68;;
34491;SDS011;20737;49.908;8.126;2022-09-09T14:08:15;2.78;;;0.90;;
34491;SDS011;20737;49.908;8.126;2022-09-09T14:10:47;2.22;;;0.73;;
34491;SDS011;20737;49.908;8.126;2022-09-09T14:13:14;5.13;;;0.80;;
34491;SDS011;20737;49.908;8.126;2022-09-09T14:15:41;2.92;;;1.08;;
34491;SDS011;20737;49.908;8.126;2022-09-09T14:18:09;3.20;;;0.52;;
34491;SDS011;20737;49.908;8.126;2022-09-09T14:20:38;2.30;;;0.70;;
34491;SDS011;20737;49.908;8.126;2022-09-09T14:23:05;1.83;;;0.70;;
34491;SDS011;20737;49.908;8.126;2022-09-09T14:25:33;4.82;;;0.80;;
34491;SDS011;20737;49.908;8.126;2022-09-09T14:28:00;2.50;;;1.20;;
34491;SDS011;20737;49.908;8.126;2022-09-09T14:30:28;3.92;;;0.98;;
34491;SDS011;20737;49.908;8.126;2022-09-09T14:32:54;2.63;;;0.68;;
34491;SDS011;20737;49.908;8.126;2022-09-09T14:35:21;0.85;;;0.57;;
34491;SDS011;20737;49.908;8.126;2022-09-09T14:37:48;3.72;;;0.85;;
34491;SDS011;20737;49.908;8.126;2022-09-09T14:40:15;2.97;;;0.70;;
34491;SDS011;20737;49.908;8.126;2022-09-09T14:42:43;4.75;;;0.80;;
34491;SDS011;20737;49.908;8.126;2022-09-09T14:45:11;3.97;;;0.93;;
34491;SDS011;20737;49.908;8.126;2022-09-09T14:47:38;1.13;;;0.68;;
34491;SDS011;20737;49.908;8.126;2022-09-09T14:50:05;3.40;;;0.93;;
34491;SDS011;20737;49.908;8.126;2022-09-09T14:52:33;3.33;;;0.88;;
34491;SDS011;20737;49.908;8.126;2022-09-09T14:55:00;2.13;;;0.60;;
34491;SDS011;20737;49.908;8.126;2022-09-09T14:57:26;2.25;;;0.63;;
34491;SDS011;20737;49.908;8.126;2022-09-09T14:59:55;2.92;;;0.80;;
34491;SDS011;20737;49.908;8.126;2022-09-09T15:02:21;0.70;;;0.60;;
34491;SDS011;20737;49.908;8.126;2022-09-09T15:04:48;3.47;;;0.70;;
34491;SDS011;20737;49.908;8.126;2022-09-09T15:07:17;1.63;;;0.60;;
34491;SDS011;20737;49.908;8.126;2022-09-09T15:09:44;1.08;;;0.60;;
34491;SDS011;20737;49.908;8.126;2022-09-09T15:12:13;2.33;;;0.60;;
34491;SDS011;20737;49.908;8.126;2022-09-09T15:14:40;2.15;;;0.57;;
34491;SDS011;20737;49.908;8.126;2022-09-09T15:17:08;2.38;;;0.65;;
34491;SDS011;20737;49.908;8.126;2022-09-09T15:19:35;4.57;;;0.65;;
34491;SDS011;20737;49.908;8.126;2022-09-09T15:22:02;3.08;;;0.80;;
34491;SDS011;20737;49.908;8.126;2022-09-09T15:24:30;2.65;;;0.60;;